createdAt,value
2018-05-26T01:30:05.990Z,100873.63
2018-05-26T01:32:33.436Z,100885.75
2018-05-26T01:35:00.857Z,100880.64
2018-05-26T01:37:28.290Z,100881.76
2018-05-26T01:39:57.448Z,100882.41
2018-05-26T01:42:24.884Z,100885.88
2018-05-26T01:44:52.304Z,100885.88
2018-05-26T01:47:19.730Z,100880.29
2018-05-26T01:49:47.158Z,100884.84
2018-05-26T01:52:14.583Z,100879.34
2018-05-26T01:54:41.996Z,100881.54
2018-05-26T01:57:15.868Z,100880.47
2018-05-26T01:59:43.883Z,100874.72
2018-05-26T02:02:11.299Z,100878.54
2018-05-26T02:04:38.711Z,100880.83
2018-05-26T02:07:06.126Z,100886.39
2018-05-26T02:09:33.524Z,100880.90
2018-05-26T02:12:00.937Z,100879.08
2018-05-26T02:14:28.345Z,100883.14
2018-05-26T02:16:55.767Z,100885.92
2018-05-26T02:19:23.207Z,100886.90
2018-05-26T02:21:50.656Z,100888.91
2018-05-26T02:24:18.097Z,100889.44
2018-05-26T02:26:45.558Z,100890.09
2018-05-26T02:29:12.992Z,100884.19
2018-05-26T02:31:40.440Z,100891.38
2018-05-26T02:34:07.999Z,100892.46
2018-05-26T02:36:35.421Z,100892.63
2018-05-26T02:39:03.749Z,100888.91
2018-05-26T02:41:31.217Z,100888.67
2018-05-26T02:43:58.690Z,100892.19
2018-05-26T02:46:26.118Z,100893.19
2018-05-26T02:48:53.569Z,100898.75
2018-05-26T02:51:21.005Z,100893.84
2018-05-26T02:53:48.454Z,100904.96
2018-05-26T02:56:15.911Z,100892.77
2018-05-26T02:58:43.371Z,100894.55
2018-05-26T03:01:10.809Z,100896.69
2018-05-26T03:03:39.028Z,100894.41
2018-05-26T03:06:12.232Z,100896.89
2018-05-26T03:08:45.200Z,100893.59
2018-05-26T03:11:18.155Z,100894.35
2018-05-26T03:13:52.314Z,100893.19
2018-05-26T03:16:19.780Z,100893.82
2018-05-26T03:18:47.220Z,100898.14
2018-05-26T03:21:18.353Z,100902.98
2018-05-26T03:23:45.804Z,100894.77
2018-05-26T03:26:13.276Z,100896.80
2018-05-26T03:28:40.723Z,100901.86
2018-05-26T03:31:08.160Z,100907.55
2018-05-26T03:36:09.432Z,100908.45
2018-05-26T03:38:36.880Z,100909.92
2018-05-26T03:41:04.305Z,100906.45
2018-05-26T03:43:31.777Z,100907.05
2018-05-26T03:45:59.567Z,100908.05
2018-05-26T03:48:27.016Z,100906.93
2018-05-26T03:50:54.453Z,100909.98
2018-05-26T03:53:21.891Z,100916.92
2018-05-26T03:56:01.038Z,100916.10
2018-05-26T03:58:40.318Z,100914.89
2018-05-26T04:01:07.768Z,100919.23
2018-05-26T04:03:35.208Z,100914.88
2018-05-26T04:06:02.670Z,100916.09
2018-05-26T04:08:30.100Z,100925.38
2018-05-26T04:10:57.544Z,100924.48
2018-05-26T04:13:25.001Z,100925.66
2018-05-26T04:15:52.433Z,100929.18
2018-05-26T04:18:20.807Z,100938.59
2018-05-26T04:20:48.263Z,100933.72
2018-05-26T04:23:18.891Z,100925.04
2018-05-26T04:25:47.159Z,100924.07
2018-05-26T04:28:14.671Z,100922.61
2018-05-26T04:30:42.058Z,100921.20
2018-05-26T04:33:09.510Z,100925.39
2018-05-26T04:35:36.964Z,100930.00
2018-05-26T04:38:04.343Z,100929.09
2018-05-26T04:40:31.738Z,100933.22
2018-05-26T04:42:59.115Z,100943.62
2018-05-26T04:45:26.514Z,100949.98
2018-05-26T04:47:53.892Z,100940.16
2018-05-26T04:50:21.280Z,100947.24
2018-05-26T04:52:48.671Z,100952.34
2018-05-26T04:55:16.076Z,100961.83
2018-05-26T04:57:44.273Z,100959.30
2018-05-26T05:00:11.669Z,100964.44
2018-05-26T05:02:39.054Z,100965.52
2018-05-26T05:05:06.439Z,100959.13
2018-05-26T05:07:33.824Z,100967.33
2018-05-26T05:10:01.234Z,100970.11
2018-05-26T05:12:28.610Z,100967.81
2018-05-26T05:14:55.996Z,100960.09
2018-05-26T05:17:23.378Z,100964.75
2018-05-26T05:19:50.770Z,100966.98
2018-05-26T05:22:19.222Z,100973.20
2018-05-26T05:24:46.617Z,100975.66
2018-05-26T05:27:13.995Z,100974.59
2018-05-26T05:29:41.399Z,100971.35
2018-05-26T05:32:08.780Z,100981.91
2018-05-26T05:34:36.167Z,100976.05
2018-05-26T05:37:03.552Z,100983.59
2018-05-26T05:39:30.942Z,100986.18
2018-05-26T05:41:58.324Z,100980.74
2018-05-26T05:44:26.412Z,100984.81
2018-05-26T05:46:53.796Z,100988.67
2018-05-26T05:49:21.189Z,100979.11
2018-05-26T05:51:48.576Z,100980.65
2018-05-26T05:54:15.962Z,100982.81
2018-05-26T05:56:43.343Z,100987.23
2018-05-26T05:59:10.740Z,100996.70
2018-05-26T06:01:38.120Z,101002.70
2018-05-26T06:04:06.311Z,100998.89
2018-05-26T06:06:33.688Z,100999.96
2018-05-26T06:09:01.079Z,101003.95
2018-05-26T06:11:28.473Z,101006.93
2018-05-26T06:13:55.952Z,101004.70
2018-05-26T06:16:23.364Z,101002.81
2018-05-26T06:18:50.740Z,100996.70
2018-05-26T06:21:18.128Z,100997.55
2018-05-26T06:23:45.522Z,101005.23
2018-05-26T06:26:13.899Z,101003.34
2018-05-26T06:28:41.291Z,101002.14
2018-05-26T06:31:08.684Z,101006.75
2018-05-26T06:33:36.072Z,101006.95
2018-05-26T06:36:03.459Z,101005.44
2018-05-26T06:38:33.116Z,101000.66
2018-05-26T06:41:00.592Z,101004.28
2018-05-26T06:43:28.113Z,100996.73
2018-05-26T06:45:56.671Z,101000.61
2018-05-26T06:48:25.797Z,100993.79
2018-05-26T06:50:53.345Z,100992.27
2018-05-26T06:53:20.879Z,100989.72
2018-05-26T06:55:49.932Z,100982.53
2018-05-26T06:58:22.888Z,100981.47
2018-05-26T07:00:50.460Z,100987.52
2018-05-26T07:03:18.301Z,100975.95
2018-05-26T07:05:47.084Z,100982.50
2018-05-26T07:08:16.674Z,100985.04
2018-05-26T07:10:44.742Z,100987.39
2018-05-26T07:13:13.490Z,100985.87
2018-05-26T07:15:42.675Z,100989.39
2018-05-26T07:18:18.173Z,100994.46
2018-05-26T07:20:47.580Z,100993.10
2018-05-26T07:23:21.612Z,100992.70
2018-05-26T07:25:49.160Z,100990.77
2018-05-26T07:28:17.503Z,100989.37
2018-05-26T07:30:50.900Z,100989.68
2018-05-26T07:33:20.909Z,100986.27
2018-05-26T07:35:56.330Z,100979.78
2018-05-26T07:38:29.622Z,100984.84
2018-05-26T07:41:00.786Z,100985.16
2018-05-26T07:43:33.728Z,100983.97
2018-05-26T07:48:35.594Z,100990.34
2018-05-26T07:51:05.651Z,100997.59
2018-05-26T07:53:35.226Z,100992.11
2018-05-26T07:56:02.659Z,100996.46
2018-05-26T07:58:30.157Z,100998.78
2018-05-26T08:00:57.518Z,100998.45
2018-05-26T08:03:24.852Z,101001.95
2018-05-26T08:05:52.250Z,100995.06
2018-05-26T08:08:19.633Z,100999.89
2018-05-26T08:10:47.124Z,100998.73
2018-05-26T08:13:14.514Z,101002.72
2018-05-26T08:15:41.896Z,101002.91
2018-05-26T08:18:09.275Z,101006.30
2018-05-26T08:20:36.660Z,101006.99
2018-05-26T08:23:04.048Z,101000.95
2018-05-26T08:25:31.440Z,101001.51
2018-05-26T08:27:58.844Z,100998.36
2018-05-26T08:30:26.251Z,101010.13
2018-05-26T08:32:53.633Z,101005.09
2018-05-26T08:35:21.033Z,101003.08
2018-05-26T08:37:48.407Z,101006.48
2018-05-26T08:40:15.790Z,101004.05
2018-05-26T08:42:43.199Z,101006.94
2018-05-26T08:45:10.581Z,101005.98
2018-05-26T08:47:37.972Z,101007.91
2018-05-26T08:50:05.401Z,100998.04
2018-05-26T08:52:32.771Z,101001.91
2018-05-26T08:55:00.180Z,101003.55
2018-05-26T08:57:27.548Z,101000.56
2018-05-26T08:59:54.968Z,101005.78
2018-05-26T09:02:22.421Z,101014.99
2018-05-26T09:04:49.747Z,101014.98
2018-05-26T09:07:17.158Z,101008.23
2018-05-26T09:09:44.545Z,101009.92
2018-05-26T09:12:11.923Z,101003.49
2018-05-26T09:14:39.320Z,101008.95
2018-05-26T09:17:06.701Z,101010.73
2018-05-26T09:19:34.124Z,100999.12
2018-05-26T09:22:01.508Z,101004.19
2018-05-26T09:24:28.891Z,100994.75
2018-05-26T09:26:56.289Z,100994.86
2018-05-26T09:29:23.655Z,100989.80
2018-05-26T09:31:51.082Z,100993.08
2018-05-26T09:34:18.468Z,100992.66
2018-05-26T09:36:45.861Z,101001.15
2018-05-26T09:39:13.239Z,100992.39
2018-05-26T09:41:40.701Z,100995.38
2018-05-26T09:44:08.094Z,100998.53
2018-05-26T09:46:35.485Z,100991.58
2018-05-26T09:49:02.868Z,100987.45
2018-05-26T09:51:30.261Z,100995.90
2018-05-26T09:53:57.643Z,100987.39
2018-05-26T09:56:25.057Z,100988.22
2018-05-26T09:58:52.420Z,100988.31
2018-05-26T10:01:19.812Z,100991.59
2018-05-26T10:03:47.191Z,100992.95
2018-05-26T10:06:14.592Z,100993.08
2018-05-26T10:08:42.154Z,100996.85
2018-05-26T10:11:11.479Z,100996.61
2018-05-26T10:13:38.897Z,100992.62
2018-05-26T10:16:06.579Z,100994.25
2018-05-26T10:18:34.878Z,100990.81
2018-05-26T10:21:02.264Z,100994.20
2018-05-26T10:26:04.568Z,100993.19
2018-05-26T10:28:31.948Z,100986.69
2018-05-26T10:30:59.359Z,100989.08
2018-05-26T10:33:26.750Z,100983.48
2018-05-26T10:35:54.154Z,100987.97
2018-05-26T10:38:21.559Z,100985.46
2018-05-26T10:40:49.107Z,100980.37
2018-05-26T10:43:16.547Z,100973.75
2018-05-26T10:45:56.298Z,100979.87
2018-05-26T10:48:23.694Z,100977.61
2018-05-26T10:50:51.172Z,100976.02
2018-05-26T10:53:18.555Z,100976.05
2018-05-26T10:55:46.060Z,100975.33
2018-05-26T10:58:14.086Z,100971.32
2018-05-26T11:00:41.476Z,100965.94
2018-05-26T11:03:08.875Z,100971.45
2018-05-26T11:05:36.284Z,100975.97
2018-05-26T11:08:07.017Z,100974.09
2018-05-26T11:10:34.479Z,100979.30
2018-05-26T11:13:01.864Z,100969.78
2018-05-26T11:15:29.255Z,100969.94
2018-05-26T11:17:56.873Z,100967.72
2018-05-26T11:20:24.068Z,100964.94
2018-05-26T11:22:51.455Z,100964.95
2018-05-26T11:25:18.886Z,100962.16
2018-05-26T11:27:46.291Z,100960.89
2018-05-26T11:30:13.662Z,100964.77
2018-05-26T11:32:41.098Z,100961.26
2018-05-26T11:35:08.473Z,100965.80
2018-05-26T11:37:35.853Z,100954.58
2018-05-26T11:40:03.236Z,100954.99
2018-05-26T11:42:30.625Z,100952.36
2018-05-26T11:44:58.003Z,100948.58
2018-05-26T11:47:25.404Z,100950.52
2018-05-26T11:49:52.787Z,100956.41
2018-05-26T11:52:20.172Z,100957.05
2018-05-26T11:54:47.547Z,100954.95
2018-05-26T11:57:14.960Z,100955.52
2018-05-26T11:59:42.345Z,100956.48
2018-05-26T12:02:09.783Z,100961.75
2018-05-26T12:04:37.152Z,100955.09
2018-05-26T12:07:04.551Z,100954.92
2018-05-26T12:09:31.932Z,100955.30
2018-05-26T12:11:59.325Z,100949.35
2018-05-26T12:14:26.769Z,100951.55
2018-05-26T12:16:54.260Z,100955.62
2018-05-26T12:19:27.077Z,100960.16
2018-05-26T12:22:00.771Z,100946.19
2018-05-26T12:24:34.238Z,100957.62
2018-05-26T12:27:23.252Z,100956.18
2018-05-26T12:35:31.668Z,100964.78
2018-05-26T12:38:20.680Z,100967.17
2018-05-26T12:45:39.377Z,100962.13
2018-05-26T12:48:17.131Z,100954.42
2018-05-26T12:50:52.956Z,100953.73
2018-05-26T12:53:37.795Z,100949.34
2018-05-26T12:56:17.769Z,100949.71
2018-05-26T12:58:47.465Z,100944.33
2018-05-26T13:04:02.324Z,100936.09
2018-05-26T13:12:10.529Z,100934.94
2018-05-26T13:14:39.563Z,100936.05
2018-05-26T13:17:26.943Z,100932.82
2018-05-26T13:19:59.318Z,100934.42
2018-05-26T13:22:31.470Z,100929.03
2018-05-26T13:25:01.666Z,100934.84
2018-05-26T13:33:58.819Z,100916.45
2018-05-26T13:36:53.330Z,100911.34
2018-05-26T13:58:31.219Z,100915.30
2018-05-26T14:11:26.757Z,100912.16
2018-05-26T14:14:20.061Z,100909.45
2018-05-26T14:17:18.791Z,100906.56
2018-05-26T14:20:10.216Z,100904.71
2018-05-26T14:22:48.670Z,100904.30
2018-05-26T14:25:23.817Z,100906.55
2018-05-26T14:28:09.641Z,100903.61
2018-05-26T14:30:48.831Z,100902.00
2018-05-26T14:33:25.122Z,100900.90
2018-05-26T14:35:59.763Z,100898.88
2018-05-26T14:38:53.072Z,100898.87
2018-05-26T14:57:54.811Z,100894.22
2018-05-26T15:00:22.227Z,100892.89
2018-05-26T15:02:49.672Z,100893.64
2018-05-26T15:05:17.118Z,100888.30
2018-05-26T15:07:44.544Z,100887.16
2018-05-26T15:10:11.970Z,100892.77
2018-05-26T15:15:13.223Z,100895.89
2018-05-26T15:17:40.636Z,100887.10
2018-05-26T15:28:59.844Z,100889.53
2018-05-26T15:31:27.237Z,100880.22
2018-05-26T15:36:48.586Z,100875.22
2018-05-26T15:39:15.985Z,100869.46
2018-05-26T15:41:43.400Z,100872.20
2018-05-26T15:44:10.779Z,100880.37
2018-05-26T15:46:39.818Z,100867.76
2018-05-26T15:51:46.490Z,100867.88
2018-05-26T15:54:15.074Z,100862.12
2018-05-26T15:59:16.735Z,100855.25
2018-05-26T16:01:44.116Z,100856.92
2018-05-26T16:04:11.497Z,100848.32
2018-05-26T16:06:38.883Z,100855.26
2018-05-26T16:09:06.281Z,100852.70
2018-05-26T16:15:00.748Z,100853.59
2018-05-26T16:17:28.135Z,100856.54
2018-05-26T16:19:55.525Z,100857.58
2018-05-26T16:22:23.843Z,100863.48
2018-05-26T16:24:51.224Z,100867.77
2018-05-26T16:27:18.614Z,100861.34
2018-05-26T16:29:46.003Z,100859.90
2018-05-26T16:32:13.426Z,100861.50
2018-05-26T16:34:40.867Z,100861.03
2018-05-26T16:37:08.248Z,100861.83
2018-05-26T16:39:35.636Z,100857.36
2018-05-26T16:42:03.030Z,100861.44
2018-05-26T16:44:30.415Z,100861.91
2018-05-26T16:46:57.832Z,100860.78
2018-05-26T16:49:25.222Z,100859.17
2018-05-26T16:51:52.617Z,100859.48
2018-05-26T16:54:19.991Z,100857.54
2018-05-26T16:56:47.380Z,100858.33
2018-05-26T16:59:14.762Z,100857.47
2018-05-26T17:01:42.152Z,100858.41
2018-05-26T17:04:09.539Z,100852.26
2018-05-26T17:06:36.933Z,100844.01
2018-05-26T17:09:04.328Z,100853.23
2018-05-26T17:11:31.724Z,100845.88
2018-05-26T17:13:59.131Z,100847.96
2018-05-26T17:16:26.527Z,100846.73
2018-05-26T17:18:53.926Z,100851.63
2018-05-26T17:21:21.320Z,100850.05
2018-05-26T17:23:48.712Z,100853.94
2018-05-26T17:26:16.109Z,100850.73
2018-05-26T17:28:43.523Z,100846.84
2018-05-26T17:31:10.913Z,100850.17
2018-05-26T17:33:38.319Z,100848.82
2018-05-26T17:36:05.712Z,100845.96
2018-05-26T17:38:33.120Z,100853.36
2018-05-26T17:41:00.504Z,100859.57
2018-05-26T17:43:27.926Z,100852.34
2018-05-26T17:45:55.285Z,100849.97
2018-05-26T17:48:22.692Z,100845.61
2018-05-26T17:50:50.088Z,100849.50
2018-05-26T17:53:17.482Z,100856.00
2018-05-26T17:55:44.867Z,100851.89
2018-05-26T17:58:12.309Z,100846.39
2018-05-26T18:00:39.676Z,100845.52
2018-05-26T18:03:07.082Z,100856.64
2018-05-26T18:05:34.483Z,100854.30
2018-05-26T18:08:01.867Z,100853.98
2018-05-26T18:10:29.246Z,100852.94
2018-05-26T18:12:56.637Z,100858.10
2018-05-26T18:15:24.024Z,100859.20
2018-05-26T18:17:51.416Z,100856.72
2018-05-26T18:20:18.793Z,100852.88
2018-05-26T18:22:46.193Z,100852.28
2018-05-26T18:25:13.589Z,100859.96
2018-05-26T18:27:41.004Z,100865.47
2018-05-26T18:30:08.396Z,100866.73
2018-05-26T18:32:35.784Z,100872.76
2018-05-26T18:35:03.156Z,100866.95
2018-05-26T18:37:30.543Z,100864.20
2018-05-26T18:39:57.919Z,100865.20
2018-05-26T18:42:25.320Z,100869.85
2018-05-26T18:44:52.710Z,100869.91
2018-05-26T18:47:20.113Z,100869.80
2018-05-26T18:49:47.490Z,100876.42
2018-05-26T18:52:14.895Z,100875.03
2018-05-26T18:54:42.286Z,100887.38
2018-05-26T18:57:09.679Z,100880.99
2018-05-26T18:59:37.069Z,100882.98
2018-05-26T19:02:04.472Z,100885.07
2018-05-26T19:04:31.859Z,100891.30
2018-05-26T19:06:59.269Z,100896.39
2018-05-26T19:09:26.657Z,100899.53
2018-05-26T19:11:54.053Z,100903.70
2018-05-26T19:14:21.439Z,100903.45
2018-05-26T19:16:49.853Z,100901.02
2018-05-26T19:27:09.146Z,100908.52
2018-05-26T19:29:41.765Z,100910.00
2018-05-26T19:32:11.110Z,100913.31
2018-05-26T19:34:39.335Z,100912.08
2018-05-26T19:37:08.017Z,100915.36
2018-05-26T19:39:51.576Z,100909.19
2018-05-26T19:42:30.809Z,100914.80
2018-05-26T19:44:59.007Z,100920.50
2018-05-26T19:47:26.437Z,100925.05
2018-05-26T19:49:55.093Z,100934.63
2018-05-26T19:52:25.360Z,100934.19
2018-05-26T19:54:53.143Z,100931.67
2018-05-26T19:57:21.504Z,100934.80
2018-05-26T19:59:50.884Z,100936.84
2018-05-26T20:02:23.188Z,100938.00
2018-05-26T20:04:55.032Z,100934.30
2018-05-26T20:07:25.161Z,100932.20
2018-05-26T20:09:58.521Z,100932.06
2018-05-26T20:12:26.870Z,100935.64
2018-05-26T20:14:56.303Z,100937.00
2018-05-26T20:17:24.381Z,100934.83
2018-05-26T20:19:51.795Z,100928.92
2018-05-26T20:22:19.538Z,100935.70
2018-05-26T20:24:47.429Z,100932.40
2018-05-26T20:27:14.835Z,100937.67
2018-05-26T20:29:44.729Z,100935.16
2018-05-26T20:32:12.933Z,100934.61
2018-05-26T20:34:40.769Z,100933.45
2018-05-26T20:37:08.320Z,100933.70
2018-05-26T20:39:36.169Z,100941.98
2018-05-26T20:42:06.162Z,100945.27
2018-05-26T20:44:36.129Z,100947.77
2018-05-26T20:47:04.845Z,100946.89
2018-05-26T20:49:32.337Z,100952.65
2018-05-26T20:52:00.440Z,100947.31
2018-05-26T20:54:31.485Z,100952.20
2018-05-26T20:57:01.813Z,100953.06
2018-05-26T20:59:30.736Z,100953.63
2018-05-26T21:01:58.140Z,100954.73
2018-05-26T21:04:27.274Z,100953.47
2018-05-26T21:06:55.050Z,100951.66
2018-05-26T21:09:23.069Z,100962.38
2018-05-26T21:11:51.478Z,100965.81
2018-05-26T21:14:19.088Z,100968.45
2018-05-26T21:16:49.436Z,100977.38
2018-05-26T21:19:18.361Z,100978.19
2018-05-26T21:21:46.749Z,100978.87
2018-05-26T21:24:16.818Z,100980.07
2018-05-26T21:26:45.690Z,100978.78
2018-05-26T21:29:13.513Z,100972.09
2018-05-26T21:31:41.081Z,100969.27
2018-05-26T21:34:14.755Z,100970.34
2018-05-26T21:36:42.512Z,100967.13
2018-05-26T21:39:10.673Z,100971.60
2018-05-26T21:41:39.304Z,100972.17
2018-05-26T21:44:07.454Z,100971.59
2018-05-26T21:46:34.852Z,100971.50
2018-05-26T21:49:03.819Z,100974.31
2018-05-26T21:51:31.205Z,100976.78
2018-05-26T21:53:59.176Z,100972.98
2018-05-26T21:56:26.941Z,100968.02
2018-05-26T21:59:04.287Z,100964.36
2018-05-26T22:01:32.714Z,100967.30
2018-05-26T22:04:02.346Z,100971.25
2018-05-26T22:06:30.896Z,100965.87
2018-05-26T22:09:02.661Z,100970.87
2018-05-26T22:11:31.676Z,100969.09
2018-05-26T22:14:01.724Z,100968.73
2018-05-26T22:16:30.524Z,100962.61
2018-05-26T22:21:36.007Z,100955.79
2018-05-26T22:24:05.505Z,100947.62
2018-05-26T22:26:33.345Z,100944.75
2018-05-26T22:29:01.732Z,100947.66
2018-05-26T22:31:29.143Z,100949.29
2018-05-26T22:33:57.378Z,100941.08
2018-05-26T22:36:24.749Z,100941.03
2018-05-26T22:38:52.482Z,100938.23
2018-05-26T22:44:13.494Z,100925.25
2018-05-26T22:46:41.330Z,100921.89
2018-05-26T22:49:09.024Z,100922.34
2018-05-26T22:51:36.938Z,100914.73
2018-05-26T22:54:07.066Z,100912.47
2018-05-26T22:56:35.525Z,100917.88
2018-05-26T22:59:02.942Z,100926.93
2018-05-26T23:01:30.334Z,100924.28
2018-05-26T23:03:57.767Z,100924.92
2018-05-26T23:06:28.178Z,100934.11
2018-05-26T23:08:56.741Z,100940.05
2018-05-26T23:11:24.799Z,100944.67
2018-05-26T23:13:53.681Z,100943.58
2018-05-26T23:16:21.078Z,100942.66
2018-05-26T23:18:48.806Z,100948.83
2018-05-26T23:21:16.994Z,100949.98
2018-05-26T23:23:46.212Z,100951.27
2018-05-26T23:26:14.159Z,100946.67
2018-05-26T23:28:43.323Z,100940.58
2018-05-26T23:31:11.584Z,100932.28
2018-05-26T23:33:38.984Z,100933.23
2018-05-26T23:36:06.363Z,100935.50
2018-05-26T23:38:33.766Z,100937.73
2018-05-26T23:41:01.138Z,100938.41
2018-05-26T23:43:28.535Z,100937.02
2018-05-26T23:45:55.910Z,100936.70
2018-05-26T23:48:23.291Z,100938.92
2018-05-26T23:50:50.671Z,100926.41
2018-05-26T23:53:18.068Z,100924.89
2018-05-26T23:55:45.443Z,100926.06
2018-05-26T23:58:12.836Z,100918.06
